Disclaimer

Please do not use the information listed here in-flight or in-navigation, as they are not provided to us by the airports but are provided by volunteers, so they might be outdated.

Search


Regions


Airport information page

Radio informations:
Tower (TWR) - 122.1 MHz
Ground (GND) - 251.25 MHz
Automatic Terminal Information Service (ATIS) - 298.4 MHz
ESENBOGA APP - 119.1 MHz

Airport informations:
Latitude: 39° 56' 59.39" N
Longitude: 032° 41' 19.04" E
Elevation: 2653 feet - 809 meters
Operating hours: 24 hour operations
Operating agency: Military
Timezone: UTC+2(+3DT) - Dates notified by NOTAM
Fuel: JP-8, SemiKeroscene MIL Spec T-83133, without icing inhibitor

115/145 octane gasoline, leaded, MIL-L-5572F (PURPLE)

100/130 octane gasoline, leaded, MIL-L-5572F (GREEN)

Runway information:
11R/29L - 4950 x 148 feet< - >1509 x 45 meters
11L/29R - 8554 x 148 feet< - >2607 x 45 meters

Recent METARs:
LTAD 190408Z VRB02KT 4000 BR NSC 04/03 Q1019 BECMG 6000 RMK RWY29 00000KT

Airport on the map: